sensor_id;sensor_type;location;lat;lon;timestamp;temperature;humidity
54680;DHT22;40578;53.178;5.846;2023-03-01T00:01:29;-0.70;99.90
54680;DHT22;40578;53.178;5.846;2023-03-01T00:03:55;0.00;99.90
54680;DHT22;40578;53.178;5.846;2023-03-01T00:06:22;-0.80;99.90
54680;DHT22;40578;53.178;5.846;2023-03-01T00:08:48;-0.70;99.90
54680;DHT22;40578;53.178;5.846;2023-03-01T00:11:17;-0.70;99.90
54680;DHT22;40578;53.178;5.846;2023-03-01T00:13:43;-0.60;99.90
54680;DHT22;40578;53.178;5.846;2023-03-01T00:16:15;-0.60;99.90
54680;DHT22;40578;53.178;5.846;2023-03-01T00:18:41;-0.60;99.90
54680;DHT22;40578;53.178;5.846;2023-03-01T00:21:06;-0.50;99.90
54680;DHT22;40578;53.178;5.846;2023-03-01T00:23:34;-0.60;99.90
54680;DHT22;40578;53.178;5.846;2023-03-01T00:25:59;-0.50;99.90
54680;DHT22;40578;53.178;5.846;2023-03-01T00:28:25;-0.50;99.90
54680;DHT22;40578;53.178;5.846;2023-03-01T00:30:51;-0.60;99.90
54680;DHT22;40578;53.178;5.846;2023-03-01T00:33:16;-0.70;99.90
54680;DHT22;40578;53.178;5.846;2023-03-01T00:35:42;-0.80;99.90
54680;DHT22;40578;53.178;5.846;2023-03-01T00:38:08;-0.80;99.90
54680;DHT22;40578;53.178;5.846;2023-03-01T00:40:35;-0.90;99.90
54680;DHT22;40578;53.178;5.846;2023-03-01T00:43:01;-0.90;99.90
54680;DHT22;40578;53.178;5.846;2023-03-01T00:45:27;-0.90;99.90
54680;DHT22;40578;53.178;5.846;2023-03-01T00:47:53;-1.00;99.90
54680;DHT22;40578;53.178;5.846;2023-03-01T00:50:19;-1.00;99.90
54680;DHT22;40578;53.178;5.846;2023-03-01T00:52:45;-1.10;99.90
54680;DHT22;40578;53.178;5.846;2023-03-01T00:55:11;-1.20;99.90
54680;DHT22;40578;53.178;5.846;2023-03-01T00:57:36;-1.20;99.90
54680;DHT22;40578;53.178;5.846;2023-03-01T01:00:05;-1.30;99.90
54680;DHT22;40578;53.178;5.846;2023-03-01T01:02:34;-1.30;99.90
54680;DHT22;40578;53.178;5.846;2023-03-01T01:04:59;-1.40;99.90
54680;DHT22;40578;53.178;5.846;2023-03-01T01:07:25;-1.40;99.90
54680;DHT22;40578;53.178;5.846;2023-03-01T01:09:51;-1.50;99.90
54680;DHT22;40578;53.178;5.846;2023-03-01T01:12:16;-1.60;99.90
54680;DHT22;40578;53.178;5.846;2023-03-01T01:14:42;-1.60;99.90
54680;DHT22;40578;53.178;5.846;2023-03-01T01:17:08;-1.80;99.90
54680;DHT22;40578;53.178;5.846;2023-03-01T01:19:33;-1.80;99.90
54680;DHT22;40578;53.178;5.846;2023-03-01T01:21:59;-1.90;99.90
54680;DHT22;40578;53.178;5.846;2023-03-01T01:24:24;-1.90;99.90
54680;DHT22;40578;53.178;5.846;2023-03-01T01:26:50;-1.80;99.90
54680;DHT22;40578;53.178;5.846;2023-03-01T01:29:16;-1.90;99.90
54680;DHT22;40578;53.178;5.846;2023-03-01T01:31:42;-1.80;99.90
54680;DHT22;40578;53.178;5.846;2023-03-01T01:34:13;-1.80;99.90
54680;DHT22;40578;53.178;5.846;2023-03-01T01:36:39;-1.70;99.90
54680;DHT22;40578;53.178;5.846;2023-03-01T01:39:05;-1.80;99.90
54680;DHT22;40578;53.178;5.846;2023-03-01T01:41:31;-1.70;99.90
54680;DHT22;40578;53.178;5.846;2023-03-01T01:44:33;-1.80;99.90
54680;DHT22;40578;53.178;5.846;2023-03-01T01:47:05;-1.60;99.90
54680;DHT22;40578;53.178;5.846;2023-03-01T01:49:38;-1.60;99.90
54680;DHT22;40578;53.178;5.846;2023-03-01T01:52:34;-1.60;99.90
54680;DHT22;40578;53.178;5.846;2023-03-01T01:55:11;-1.60;99.90
54680;DHT22;40578;53.178;5.846;2023-03-01T01:57:49;-1.60;99.90
54680;DHT22;40578;53.178;5.846;2023-03-01T02:00:24;-1.50;99.90
54680;DHT22;40578;53.178;5.846;2023-03-01T02:02:57;-1.40;99.90
54680;DHT22;40578;53.178;5.846;2023-03-01T02:05:35;-1.50;99.90
54680;DHT22;40578;53.178;5.846;2023-03-01T02:08:03;-1.40;99.90
54680;DHT22;40578;53.178;5.846;2023-03-01T02:10:29;-1.50;99.90
54680;DHT22;40578;53.178;5.846;2023-03-01T02:13:00;-1.40;99.90
54680;DHT22;40578;53.178;5.846;2023-03-01T02:15:26;-1.50;99.90
54680;DHT22;40578;53.178;5.846;2023-03-01T02:17:53;-1.50;99.90
54680;DHT22;40578;53.178;5.846;2023-03-01T02:23:02;-1.50;99.90
54680;DHT22;40578;53.178;5.846;2023-03-01T02:25:51;-1.60;99.90
54680;DHT22;40578;53.178;5.846;2023-03-01T02:30:53;-1.50;99.90
54680;DHT22;40578;53.178;5.846;2023-03-01T02:33:39;-1.50;99.90
54680;DHT22;40578;53.178;5.846;2023-03-01T02:36:08;-1.60;99.90
54680;DHT22;40578;53.178;5.846;2023-03-01T02:38:34;-1.00;99.90
54680;DHT22;40578;53.178;5.846;2023-03-01T02:41:02;-1.50;99.90
54680;DHT22;40578;53.178;5.846;2023-03-01T02:43:31;-1.50;99.90
54680;DHT22;40578;53.178;5.846;2023-03-01T02:46:02;-1.50;99.90
54680;DHT22;40578;53.178;5.846;2023-03-01T02:48:49;-1.40;99.90
54680;DHT22;40578;53.178;5.846;2023-03-01T02:56:30;-1.50;99.90
54680;DHT22;40578;53.178;5.846;2023-03-01T02:58:56;-1.60;99.90
54680;DHT22;40578;53.178;5.846;2023-03-01T03:01:26;-1.60;99.90
54680;DHT22;40578;53.178;5.846;2023-03-01T03:04:07;-1.70;99.90
54680;DHT22;40578;53.178;5.846;2023-03-01T03:06:33;-1.70;99.90
54680;DHT22;40578;53.178;5.846;2023-03-01T03:08:59;-1.60;99.90
54680;DHT22;40578;53.178;5.846;2023-03-01T03:11:25;-1.70;99.90
54680;DHT22;40578;53.178;5.846;2023-03-01T03:13:51;-1.60;99.90
54680;DHT22;40578;53.178;5.846;2023-03-01T03:16:18;-1.80;99.90
54680;DHT22;40578;53.178;5.846;2023-03-01T03:18:43;-1.70;99.90
54680;DHT22;40578;53.178;5.846;2023-03-01T03:21:11;-1.80;99.90
54680;DHT22;40578;53.178;5.846;2023-03-01T03:23:37;-1.80;99.90
54680;DHT22;40578;53.178;5.846;2023-03-01T03:26:04;-1.80;99.90
54680;DHT22;40578;53.178;5.846;2023-03-01T03:28:30;-1.80;99.90
54680;DHT22;40578;53.178;5.846;2023-03-01T03:30:56;-2.00;99.90
54680;DHT22;40578;53.178;5.846;2023-03-01T03:33:22;-2.00;99.90
54680;DHT22;40578;53.178;5.846;2023-03-01T03:35:49;-1.90;99.90
54680;DHT22;40578;53.178;5.846;2023-03-01T03:38:16;-2.00;99.90
54680;DHT22;40578;53.178;5.846;2023-03-01T03:41:03;-2.00;99.90
54680;DHT22;40578;53.178;5.846;2023-03-01T03:43:31;-2.00;99.90
54680;DHT22;40578;53.178;5.846;2023-03-01T03:45:58;-2.00;99.90
54680;DHT22;40578;53.178;5.846;2023-03-01T03:48:24;-2.20;99.90
54680;DHT22;40578;53.178;5.846;2023-03-01T03:50:54;-2.10;99.90
54680;DHT22;40578;53.178;5.846;2023-03-01T03:53:22;-2.10;99.90
54680;DHT22;40578;53.178;5.846;2023-03-01T03:55:48;-2.20;99.90
54680;DHT22;40578;53.178;5.846;2023-03-01T03:58:18;-2.30;99.90
54680;DHT22;40578;53.178;5.846;2023-03-01T04:00:45;-2.30;99.90
54680;DHT22;40578;53.178;5.846;2023-03-01T04:03:13;-2.30;99.90
54680;DHT22;40578;53.178;5.846;2023-03-01T04:05:39;-2.30;99.90
54680;DHT22;40578;53.178;5.846;2023-03-01T04:08:06;-2.30;99.90
54680;DHT22;40578;53.178;5.846;2023-03-01T04:10:43;-2.30;99.90
54680;DHT22;40578;53.178;5.846;2023-03-01T04:13:16;-2.40;99.90
54680;DHT22;40578;53.178;5.846;2023-03-01T04:15:42;-2.40;99.90
54680;DHT22;40578;53.178;5.846;2023-03-01T04:18:15;-2.30;99.90
54680;DHT22;40578;53.178;5.846;2023-03-01T04:20:41;-2.30;99.90
54680;DHT22;40578;53.178;5.846;2023-03-01T04:23:10;-2.40;99.90
54680;DHT22;40578;53.178;5.846;2023-03-01T04:25:53;-2.40;99.90
54680;DHT22;40578;53.178;5.846;2023-03-01T04:28:26;-2.40;99.90
54680;DHT22;40578;53.178;5.846;2023-03-01T04:30:55;-2.40;99.90
54680;DHT22;40578;53.178;5.846;2023-03-01T04:33:22;-2.40;99.90
54680;DHT22;40578;53.178;5.846;2023-03-01T04:35:47;-2.40;99.90
54680;DHT22;40578;53.178;5.846;2023-03-01T04:38:15;-2.30;99.90
54680;DHT22;40578;53.178;5.846;2023-03-01T04:40:41;-2.30;99.90
54680;DHT22;40578;53.178;5.846;2023-03-01T04:43:09;-2.40;99.90
54680;DHT22;40578;53.178;5.846;2023-03-01T04:45:35;-2.30;99.90
54680;DHT22;40578;53.178;5.846;2023-03-01T04:48:02;-2.30;99.90
54680;DHT22;40578;53.178;5.846;2023-03-01T04:50:28;-2.30;99.90
54680;DHT22;40578;53.178;5.846;2023-03-01T04:52:55;-2.20;99.90
54680;DHT22;40578;53.178;5.846;2023-03-01T04:55:27;-2.20;99.90
54680;DHT22;40578;53.178;5.846;2023-03-01T04:57:54;-2.20;99.90
54680;DHT22;40578;53.178;5.846;2023-03-01T05:00:20;-2.20;99.90
54680;DHT22;40578;53.178;5.846;2023-03-01T05:02:57;-2.30;99.90
54680;DHT22;40578;53.178;5.846;2023-03-01T05:05:26;-2.20;99.90
54680;DHT22;40578;53.178;5.846;2023-03-01T05:07:56;-2.20;99.90
54680;DHT22;40578;53.178;5.846;2023-03-01T05:10:23;-2.20;99.90
54680;DHT22;40578;53.178;5.846;2023-03-01T05:12:49;-2.20;99.90
54680;DHT22;40578;53.178;5.846;2023-03-01T05:15:15;-2.30;99.90
54680;DHT22;40578;53.178;5.846;2023-03-01T05:17:40;-2.30;99.90
54680;DHT22;40578;53.178;5.846;2023-03-01T05:20:06;-2.40;99.90
54680;DHT22;40578;53.178;5.846;2023-03-01T05:22:35;-2.30;99.90
54680;DHT22;40578;53.178;5.846;2023-03-01T05:25:01;-2.20;99.90
54680;DHT22;40578;53.178;5.846;2023-03-01T05:27:27;-1.50;99.90
54680;DHT22;40578;53.178;5.846;2023-03-01T05:29:53;-2.30;99.90
54680;DHT22;40578;53.178;5.846;2023-03-01T05:32:18;-2.40;99.90
54680;DHT22;40578;53.178;5.846;2023-03-01T05:34:44;-2.30;99.90
54680;DHT22;40578;53.178;5.846;2023-03-01T05:37:12;-2.30;99.90
54680;DHT22;40578;53.178;5.846;2023-03-01T05:39:38;-2.30;99.90
54680;DHT22;40578;53.178;5.846;2023-03-01T05:42:05;-2.40;99.90
54680;DHT22;40578;53.178;5.846;2023-03-01T05:44:31;-2.50;99.90
54680;DHT22;40578;53.178;5.846;2023-03-01T05:46:57;-2.50;99.90
54680;DHT22;40578;53.178;5.846;2023-03-01T05:49:23;-2.60;99.90
54680;DHT22;40578;53.178;5.846;2023-03-01T05:51:53;-2.60;99.90
54680;DHT22;40578;53.178;5.846;2023-03-01T05:54:22;-2.70;99.90
54680;DHT22;40578;53.178;5.846;2023-03-01T05:56:47;-2.60;99.90
54680;DHT22;40578;53.178;5.846;2023-03-01T05:59:13;-2.70;99.90
54680;DHT22;40578;53.178;5.846;2023-03-01T06:01:40;-2.80;99.90
54680;DHT22;40578;53.178;5.846;2023-03-01T06:04:06;-4.80;99.90
54680;DHT22;40578;53.178;5.846;2023-03-01T06:06:36;-2.80;99.90
54680;DHT22;40578;53.178;5.846;2023-03-01T06:09:03;-2.90;99.90
54680;DHT22;40578;53.178;5.846;2023-03-01T06:11:29;-2.90;99.90
54680;DHT22;40578;53.178;5.846;2023-03-01T06:13:54;-2.90;99.90
54680;DHT22;40578;53.178;5.846;2023-03-01T06:16:20;-2.80;99.90
54680;DHT22;40578;53.178;5.846;2023-03-01T06:18:46;-2.90;99.90
54680;DHT22;40578;53.178;5.846;2023-03-01T06:21:11;-3.00;99.90
54680;DHT22;40578;53.178;5.846;2023-03-01T06:23:37;-2.90;99.90
54680;DHT22;40578;53.178;5.846;2023-03-01T06:26:07;-2.90;99.90
54680;DHT22;40578;53.178;5.846;2023-03-01T06:28:33;-3.00;99.90
54680;DHT22;40578;53.178;5.846;2023-03-01T06:30:59;-2.90;99.90
54680;DHT22;40578;53.178;5.846;2023-03-01T06:33:24;-2.90;99.90
54680;DHT22;40578;53.178;5.846;2023-03-01T06:35:51;-2.80;99.90
54680;DHT22;40578;53.178;5.846;2023-03-01T06:38:17;-2.80;99.90
54680;DHT22;40578;53.178;5.846;2023-03-01T06:40:44;-2.90;99.90
54680;DHT22;40578;53.178;5.846;2023-03-01T06:43:10;-2.80;99.90
54680;DHT22;40578;53.178;5.846;2023-03-01T06:45:36;-2.80;99.90
54680;DHT22;40578;53.178;5.846;2023-03-01T06:48:06;-2.70;99.90
54680;DHT22;40578;53.178;5.846;2023-03-01T06:50:35;-2.60;99.90
54680;DHT22;40578;53.178;5.846;2023-03-01T06:53:01;-2.50;99.90
54680;DHT22;40578;53.178;5.846;2023-03-01T06:55:27;-2.50;99.90
54680;DHT22;40578;53.178;5.846;2023-03-01T06:57:57;-2.60;99.90
54680;DHT22;40578;53.178;5.846;2023-03-01T07:00:24;-2.50;99.90
54680;DHT22;40578;53.178;5.846;2023-03-01T07:02:50;-2.40;99.90
54680;DHT22;40578;53.178;5.846;2023-03-01T07:05:16;-2.50;99.90
54680;DHT22;40578;53.178;5.846;2023-03-01T07:07:42;-2.00;99.90
54680;DHT22;40578;53.178;5.846;2023-03-01T07:10:08;-2.50;99.90
54680;DHT22;40578;53.178;5.846;2023-03-01T07:12:34;-2.50;99.90
54680;DHT22;40578;53.178;5.846;2023-03-01T07:14:59;-2.50;99.90
54680;DHT22;40578;53.178;5.846;2023-03-01T07:17:25;-2.50;99.90
54680;DHT22;40578;53.178;5.846;2023-03-01T07:19:51;-2.40;99.90
54680;DHT22;40578;53.178;5.846;2023-03-01T07:22:16;-2.40;99.90
54680;DHT22;40578;53.178;5.846;2023-03-01T07:24:43;-2.40;99.90
54680;DHT22;40578;53.178;5.846;2023-03-01T07:27:09;-2.40;99.90
54680;DHT22;40578;53.178;5.846;2023-03-01T07:29:35;-2.40;99.90
54680;DHT22;40578;53.178;5.846;2023-03-01T07:32:02;-2.50;99.90
54680;DHT22;40578;53.178;5.846;2023-03-01T07:34:28;-2.50;99.90
54680;DHT22;40578;53.178;5.846;2023-03-01T07:36:54;-2.40;99.90
54680;DHT22;40578;53.178;5.846;2023-03-01T07:39:19;-2.40;99.90
54680;DHT22;40578;53.178;5.846;2023-03-01T07:41:45;-2.30;99.90
54680;DHT22;40578;53.178;5.846;2023-03-01T07:44:11;-2.30;99.90
54680;DHT22;40578;53.178;5.846;2023-03-01T07:46:36;-2.20;99.90
54680;DHT22;40578;53.178;5.846;2023-03-01T07:49:02;-2.20;99.90
54680;DHT22;40578;53.178;5.846;2023-03-01T07:51:28;-2.30;99.90
54680;DHT22;40578;53.178;5.846;2023-03-01T07:53:53;-2.20;99.90
54680;DHT22;40578;53.178;5.846;2023-03-01T07:56:19;-2.10;99.90
54680;DHT22;40578;53.178;5.846;2023-03-01T07:58:46;-2.10;99.90
54680;DHT22;40578;53.178;5.846;2023-03-01T08:01:16;-2.00;99.90
54680;DHT22;40578;53.178;5.846;2023-03-01T08:03:42;-2.00;99.90
54680;DHT22;40578;53.178;5.846;2023-03-01T08:06:10;-1.90;99.90
54680;DHT22;40578;53.178;5.846;2023-03-01T08:08:36;-1.80;99.90
54680;DHT22;40578;53.178;5.846;2023-03-01T08:11:04;-1.90;99.90
54680;DHT22;40578;53.178;5.846;2023-03-01T08:13:30;-1.80;99.90
54680;DHT22;40578;53.178;5.846;2023-03-01T08:16:03;-1.70;99.90
54680;DHT22;40578;53.178;5.846;2023-03-01T08:18:29;-1.80;99.90
54680;DHT22;40578;53.178;5.846;2023-03-01T08:20:55;-1.80;99.90
54680;DHT22;40578;53.178;5.846;2023-03-01T08:23:20;-1.60;99.90
54680;DHT22;40578;53.178;5.846;2023-03-01T08:25:46;-1.70;99.90
54680;DHT22;40578;53.178;5.846;2023-03-01T08:28:11;-1.70;99.90
54680;DHT22;40578;53.178;5.846;2023-03-01T08:30:37;-1.60;99.90
54680;DHT22;40578;53.178;5.846;2023-03-01T08:33:03;-1.50;99.90
54680;DHT22;40578;53.178;5.846;2023-03-01T08:35:28;-1.50;99.90
54680;DHT22;40578;53.178;5.846;2023-03-01T08:37:54;-1.50;99.90
54680;DHT22;40578;53.178;5.846;2023-03-01T08:40:19;-1.40;99.90
54680;DHT22;40578;53.178;5.846;2023-03-01T08:42:45;-1.20;99.90
54680;DHT22;40578;53.178;5.846;2023-03-01T08:45:11;-1.20;99.90
54680;DHT22;40578;53.178;5.846;2023-03-01T08:47:37;-1.10;99.90
54680;DHT22;40578;53.178;5.846;2023-03-01T08:50:04;0.40;99.90
54680;DHT22;40578;53.178;5.846;2023-03-01T08:52:30;-1.20;99.90
54680;DHT22;40578;53.178;5.846;2023-03-01T08:54:57;-1.10;99.90
54680;DHT22;40578;53.178;5.846;2023-03-01T08:57:22;-0.90;99.90
54680;DHT22;40578;53.178;5.846;2023-03-01T08:59:48;-1.00;99.90
54680;DHT22;40578;53.178;5.846;2023-03-01T09:02:16;-0.90;99.90
54680;DHT22;40578;53.178;5.846;2023-03-01T09:04:41;-0.80;99.90
54680;DHT22;40578;53.178;5.846;2023-03-01T09:07:08;-0.80;99.90
54680;DHT22;40578;53.178;5.846;2023-03-01T09:09:34;-0.70;99.90
54680;DHT22;40578;53.178;5.846;2023-03-01T09:12:00;-0.70;99.90
54680;DHT22;40578;53.178;5.846;2023-03-01T09:14:26;-0.50;99.90
54680;DHT22;40578;53.178;5.846;2023-03-01T09:16:51;-0.40;99.90
54680;DHT22;40578;53.178;5.846;2023-03-01T09:19:17;-0.30;99.90
54680;DHT22;40578;53.178;5.846;2023-03-01T09:21:42;-0.30;99.90
54680;DHT22;40578;53.178;5.846;2023-03-01T09:24:18;-0.30;99.90
54680;DHT22;40578;53.178;5.846;2023-03-01T09:26:44;-0.20;99.90
54680;DHT22;40578;53.178;5.846;2023-03-01T09:29:11;-0.20;99.90
54680;DHT22;40578;53.178;5.846;2023-03-01T09:31:38;-0.10;99.90
54680;DHT22;40578;53.178;5.846;2023-03-01T09:34:04;-0.10;99.90
54680;DHT22;40578;53.178;5.846;2023-03-01T09:36:30;0.10;99.90
54680;DHT22;40578;53.178;5.846;2023-03-01T09:38:57;0.10;99.90
54680;DHT22;40578;53.178;5.846;2023-03-01T09:44:10;0.40;99.90
54680;DHT22;40578;53.178;5.846;2023-03-01T09:46:41;0.50;99.90
54680;DHT22;40578;53.178;5.846;2023-03-01T09:49:19;0.50;99.90
54680;DHT22;40578;53.178;5.846;2023-03-01T09:52:03;0.60;99.90
54680;DHT22;40578;53.178;5.846;2023-03-01T09:54:31;0.70;99.90
54680;DHT22;40578;53.178;5.846;2023-03-01T09:57:17;0.80;99.90
54680;DHT22;40578;53.178;5.846;2023-03-01T10:10:28;1.20;99.90
54680;DHT22;40578;53.178;5.846;2023-03-01T10:12:55;1.30;99.90
54680;DHT22;40578;53.178;5.846;2023-03-01T10:15:29;1.40;99.90
54680;DHT22;40578;53.178;5.846;2023-03-01T10:18:20;1.30;99.90
54680;DHT22;40578;53.178;5.846;2023-03-01T10:23:38;1.60;99.90
54680;DHT22;40578;53.178;5.846;2023-03-01T10:29:06;1.80;99.90
54680;DHT22;40578;53.178;5.846;2023-03-01T10:31:43;1.90;99.90
54680;DHT22;40578;53.178;5.846;2023-03-01T10:36:51;2.20;99.90
54680;DHT22;40578;53.178;5.846;2023-03-01T10:39:20;2.30;99.90
54680;DHT22;40578;53.178;5.846;2023-03-01T10:41:59;2.40;99.90
54680;DHT22;40578;53.178;5.846;2023-03-01T10:44:45;2.50;99.90
54680;DHT22;40578;53.178;5.846;2023-03-01T10:49:58;2.70;99.90
54680;DHT22;40578;53.178;5.846;2023-03-01T10:52:32;2.80;99.90
54680;DHT22;40578;53.178;5.846;2023-03-01T10:57:39;2.90;99.90
54680;DHT22;40578;53.178;5.846;2023-03-01T11:00:24;4.50;99.90
54680;DHT22;40578;53.178;5.846;2023-03-01T11:05:26;3.30;99.90
54680;DHT22;40578;53.178;5.846;2023-03-01T11:07:55;3.40;99.90
54680;DHT22;40578;53.178;5.846;2023-03-01T11:10:36;3.50;99.90
54680;DHT22;40578;53.178;5.846;2023-03-01T11:13:16;3.60;99.90
54680;DHT22;40578;53.178;5.846;2023-03-01T11:15:43;3.70;99.90
54680;DHT22;40578;53.178;5.846;2023-03-01T11:18:23;3.90;99.90
54680;DHT22;40578;53.178;5.846;2023-03-01T11:20:51;4.00;99.90
54680;DHT22;40578;53.178;5.846;2023-03-01T11:23:17;4.00;99.90
54680;DHT22;40578;53.178;5.846;2023-03-01T11:25:57;4.10;99.90
54680;DHT22;40578;53.178;5.846;2023-03-01T11:28:25;4.20;99.90
54680;DHT22;40578;53.178;5.846;2023-03-01T11:38:50;4.60;99.90
54680;DHT22;40578;53.178;5.846;2023-03-01T11:41:18;4.70;99.90
54680;DHT22;40578;53.178;5.846;2023-03-01T11:44:01;4.70;99.90
54680;DHT22;40578;53.178;5.846;2023-03-01T11:54:57;5.10;99.90
54680;DHT22;40578;53.178;5.846;2023-03-01T12:08:48;5.40;99.90
54680;DHT22;40578;53.178;5.846;2023-03-01T12:17:05;5.70;99.90
54680;DHT22;40578;53.178;5.846;2023-03-01T12:36:07;6.10;99.90
54680;DHT22;40578;53.178;5.846;2023-03-01T12:41:40;6.20;99.90
54680;DHT22;40578;53.178;5.846;2023-03-01T12:44:42;6.50;99.90
54680;DHT22;40578;53.178;5.846;2023-03-01T12:47:26;6.20;99.90
54680;DHT22;40578;53.178;5.846;2023-03-01T12:50:11;6.30;99.90
54680;DHT22;40578;53.178;5.846;2023-03-01T12:53:00;6.40;99.90
54680;DHT22;40578;53.178;5.846;2023-03-01T12:55:41;6.40;99.90
54680;DHT22;40578;53.178;5.846;2023-03-01T12:58:24;6.50;99.90
54680;DHT22;40578;53.178;5.846;2023-03-01T13:09:40;6.60;99.90
54680;DHT22;40578;53.178;5.846;2023-03-01T13:12:44;6.80;99.90
54680;DHT22;40578;53.178;5.846;2023-03-01T13:18:33;6.90;99.90
54680;DHT22;40578;53.178;5.846;2023-03-01T13:31:00;7.70;99.90
54680;DHT22;40578;53.178;5.846;2023-03-01T13:35:56;7.00;99.90
54680;DHT22;40578;53.178;5.846;2023-03-01T13:41:09;7.10;99.90
54680;DHT22;40578;53.178;5.846;2023-03-01T13:43:36;7.20;99.90
54680;DHT22;40578;53.178;5.846;2023-03-01T13:46:20;7.10;99.90
54680;DHT22;40578;53.178;5.846;2023-03-01T13:48:50;7.20;99.90
54680;DHT22;40578;53.178;5.846;2023-03-01T13:51:23;7.20;99.90
54680;DHT22;40578;53.178;5.846;2023-03-01T13:53:51;7.20;99.90
54680;DHT22;40578;53.178;5.846;2023-03-01T13:56:18;7.20;99.90
54680;DHT22;40578;53.178;5.846;2023-03-01T13:58:53;7.20;99.90
54680;DHT22;40578;53.178;5.846;2023-03-01T14:01:34;7.20;99.90
54680;DHT22;40578;53.178;5.846;2023-03-01T14:04:01;7.20;99.90
54680;DHT22;40578;53.178;5.846;2023-03-01T14:06:28;7.20;99.90
54680;DHT22;40578;53.178;5.846;2023-03-01T14:09:14;7.30;99.90
54680;DHT22;40578;53.178;5.846;2023-03-01T14:17:53;7.40;99.90
54680;DHT22;40578;53.178;5.846;2023-03-01T14:20:26;7.30;99.90
54680;DHT22;40578;53.178;5.846;2023-03-01T14:22:57;7.30;99.90
54680;DHT22;40578;53.178;5.846;2023-03-01T14:25:26;8.20;99.90
54680;DHT22;40578;53.178;5.846;2023-03-01T14:27:57;7.20;99.90
54680;DHT22;40578;53.178;5.846;2023-03-01T14:30:26;7.20;99.90
54680;DHT22;40578;53.178;5.846;2023-03-01T14:33:03;7.30;99.90
54680;DHT22;40578;53.178;5.846;2023-03-01T14:35:34;7.40;99.90
54680;DHT22;40578;53.178;5.846;2023-03-01T14:38:01;7.50;99.90
54680;DHT22;40578;53.178;5.846;2023-03-01T14:40:30;7.30;99.90
54680;DHT22;40578;53.178;5.846;2023-03-01T14:43:00;7.30;99.90
54680;DHT22;40578;53.178;5.846;2023-03-01T14:45:29;7.30;99.90
54680;DHT22;40578;53.178;5.846;2023-03-01T14:48:00;7.30;99.90
54680;DHT22;40578;53.178;5.846;2023-03-01T14:50:29;7.30;99.90
54680;DHT22;40578;53.178;5.846;2023-03-01T14:53:02;7.30;99.90
54680;DHT22;40578;53.178;5.846;2023-03-01T14:55:34;7.30;99.90
54680;DHT22;40578;53.178;5.846;2023-03-01T14:58:04;7.40;99.90
54680;DHT22;40578;53.178;5.846;2023-03-01T15:00:32;7.40;99.90
54680;DHT22;40578;53.178;5.846;2023-03-01T15:03:13;7.40;99.90
54680;DHT22;40578;53.178;5.846;2023-03-01T15:05:40;7.40;99.90
54680;DHT22;40578;53.178;5.846;2023-03-01T15:08:07;7.40;99.90
54680;DHT22;40578;53.178;5.846;2023-03-01T15:10:36;7.40;99.90
54680;DHT22;40578;53.178;5.846;2023-03-01T15:13:24;7.30;99.90
54680;DHT22;40578;53.178;5.846;2023-03-01T15:15:51;7.30;99.90
54680;DHT22;40578;53.178;5.846;2023-03-01T15:18:27;7.40;99.90
54680;DHT22;40578;53.178;5.846;2023-03-01T15:20:54;7.40;99.90
54680;DHT22;40578;53.178;5.846;2023-03-01T15:23:28;7.40;99.90
54680;DHT22;40578;53.178;5.846;2023-03-01T15:25:55;7.40;99.90
54680;DHT22;40578;53.178;5.846;2023-03-01T15:28:24;7.30;99.90
54680;DHT22;40578;53.178;5.846;2023-03-01T15:31:03;7.30;99.90
54680;DHT22;40578;53.178;5.846;2023-03-01T15:33:35;7.20;99.90
54680;DHT22;40578;53.178;5.846;2023-03-01T15:36:39;7.30;99.90
54680;DHT22;40578;53.178;5.846;2023-03-01T15:39:29;7.30;99.90
54680;DHT22;40578;53.178;5.846;2023-03-01T15:41:56;7.30;99.90
54680;DHT22;40578;53.178;5.846;2023-03-01T15:44:27;7.90;99.90
54680;DHT22;40578;53.178;5.846;2023-03-01T15:46:53;7.30;99.90
54680;DHT22;40578;53.178;5.846;2023-03-01T15:49:36;7.70;99.90
54680;DHT22;40578;53.178;5.846;2023-03-01T15:52:03;7.30;99.90
54680;DHT22;40578;53.178;5.846;2023-03-01T15:54:29;7.30;99.90
54680;DHT22;40578;53.178;5.846;2023-03-01T15:56:55;7.30;99.90
54680;DHT22;40578;53.178;5.846;2023-03-01T15:59:21;7.20;99.90
54680;DHT22;40578;53.178;5.846;2023-03-01T16:01:48;7.20;99.90
54680;DHT22;40578;53.178;5.846;2023-03-01T16:04:16;7.20;99.90
54680;DHT22;40578;53.178;5.846;2023-03-01T16:06:53;7.20;99.90
54680;DHT22;40578;53.178;5.846;2023-03-01T16:09:23;7.20;99.90
54680;DHT22;40578;53.178;5.846;2023-03-01T16:11:50;7.10;99.90
54680;DHT22;40578;53.178;5.846;2023-03-01T16:14:16;7.00;99.90
54680;DHT22;40578;53.178;5.846;2023-03-01T16:16:43;7.00;99.90
54680;DHT22;40578;53.178;5.846;2023-03-01T16:19:09;6.80;99.90
54680;DHT22;40578;53.178;5.846;2023-03-01T16:21:35;6.80;99.90
54680;DHT22;40578;53.178;5.846;2023-03-01T16:24:01;7.60;99.90
54680;DHT22;40578;53.178;5.846;2023-03-01T16:26:27;8.20;99.90
54680;DHT22;40578;53.178;5.846;2023-03-01T16:28:55;6.70;99.90
54680;DHT22;40578;53.178;5.846;2023-03-01T16:31:22;6.60;99.90
54680;DHT22;40578;53.178;5.846;2023-03-01T16:33:48;6.50;99.90
54680;DHT22;40578;53.178;5.846;2023-03-01T16:36:19;6.40;99.90
54680;DHT22;40578;53.178;5.846;2023-03-01T16:38:45;6.30;99.90
54680;DHT22;40578;53.178;5.846;2023-03-01T16:41:16;6.30;99.90
54680;DHT22;40578;53.178;5.846;2023-03-01T16:43:42;6.20;99.90
54680;DHT22;40578;53.178;5.846;2023-03-01T16:46:27;6.10;99.90
54680;DHT22;40578;53.178;5.846;2023-03-01T16:48:54;7.50;99.90
54680;DHT22;40578;53.178;5.846;2023-03-01T16:51:21;6.00;99.90
54680;DHT22;40578;53.178;5.846;2023-03-01T16:53:47;6.50;99.90
54680;DHT22;40578;53.178;5.846;2023-03-01T16:56:14;5.80;99.90
54680;DHT22;40578;53.178;5.846;2023-03-01T16:58:40;5.80;99.90
54680;DHT22;40578;53.178;5.846;2023-03-01T17:01:11;5.70;99.90
54680;DHT22;40578;53.178;5.846;2023-03-01T17:03:38;5.70;99.90
54680;DHT22;40578;53.178;5.846;2023-03-01T17:06:05;5.70;99.90
54680;DHT22;40578;53.178;5.846;2023-03-01T17:08:32;5.60;99.90
54680;DHT22;40578;53.178;5.846;2023-03-01T17:11:09;5.50;99.90
54680;DHT22;40578;53.178;5.846;2023-03-01T17:13:36;5.30;99.90
54680;DHT22;40578;53.178;5.846;2023-03-01T17:16:07;5.30;99.90
54680;DHT22;40578;53.178;5.846;2023-03-01T17:18:33;5.20;99.90
54680;DHT22;40578;53.178;5.846;2023-03-01T17:20:59;5.80;99.90
54680;DHT22;40578;53.178;5.846;2023-03-01T17:23:25;5.10;99.90
54680;DHT22;40578;53.178;5.846;2023-03-01T17:25:52;5.20;99.90
54680;DHT22;40578;53.178;5.846;2023-03-01T17:28:23;5.10;99.90
54680;DHT22;40578;53.178;5.846;2023-03-01T17:30:49;5.00;99.90
54680;DHT22;40578;53.178;5.846;2023-03-01T17:33:16;5.00;99.90
54680;DHT22;40578;53.178;5.846;2023-03-01T17:35:42;4.90;99.90
54680;DHT22;40578;53.178;5.846;2023-03-01T17:38:14;4.80;99.90
54680;DHT22;40578;53.178;5.846;2023-03-01T17:40:41;4.80;99.90
54680;DHT22;40578;53.178;5.846;2023-03-01T17:43:08;5.20;99.90
54680;DHT22;40578;53.178;5.846;2023-03-01T17:45:36;4.70;99.90
54680;DHT22;40578;53.178;5.846;2023-03-01T17:48:02;4.60;99.90
54680;DHT22;40578;53.178;5.846;2023-03-01T17:50:28;4.60;99.90
54680;DHT22;40578;53.178;5.846;2023-03-01T17:52:54;4.60;99.90
54680;DHT22;40578;53.178;5.846;2023-03-01T17:55:20;4.50;99.90
54680;DHT22;40578;53.178;5.846;2023-03-01T17:57:46;4.40;99.90